createdAt,value
2023-05-08T00:00:24.427Z,0.00
2023-05-08T00:01:24.396Z,0.00
2023-05-08T00:02:24.459Z,0.00
2023-05-08T00:03:24.486Z,0.00
2023-05-08T00:04:24.419Z,0.00
2023-05-08T00:05:24.373Z,0.00
2023-05-08T00:06:24.350Z,0.00
2023-05-08T00:07:24.342Z,0.00
2023-05-08T00:08:24.370Z,0.00
2023-05-08T00:09:24.329Z,0.00
2023-05-08T00:10:24.309Z,0.00
2023-05-08T00:11:24.300Z,0.00
2023-05-08T00:12:24.290Z,0.00
2023-05-08T00:13:24.383Z,0.00
2023-05-08T00:14:24.272Z,0.00
2023-05-08T00:15:24.284Z,0.00
2023-05-08T00:16:24.288Z,0.00
2023-05-08T00:17:24.278Z,0.00
2023-05-08T00:18:24.238Z,0.00
2023-05-08T00:19:24.625Z,0.00
2023-05-08T00:20:24.216Z,0.00
2023-05-08T00:21:24.205Z,0.00
2023-05-08T00:22:24.196Z,0.00
2023-05-08T00:23:24.186Z,0.00
2023-05-08T00:24:24.177Z,0.00
2023-05-08T00:25:24.171Z,0.00
2023-05-08T00:26:24.155Z,0.00
2023-05-08T00:27:24.253Z,0.00
2023-05-08T00:28:24.137Z,0.00
2023-05-08T00:29:24.127Z,0.00
2023-05-08T00:30:24.149Z,0.00
2023-05-08T00:31:24.228Z,0.00
2023-05-08T00:32:24.224Z,0.00
2023-05-08T00:33:24.085Z,0.00
2023-05-08T00:34:24.078Z,0.00
2023-05-08T00:35:24.065Z,0.00
2023-05-08T00:36:24.060Z,0.00
2023-05-08T00:37:24.049Z,0.00
2023-05-08T00:38:24.037Z,0.00
2023-05-08T00:39:24.039Z,0.00
2023-05-08T00:40:24.025Z,0.00
2023-05-08T00:41:24.011Z,0.00
2023-05-08T00:42:24.000Z,0.00
2023-05-08T00:43:23.989Z,0.00
2023-05-08T00:44:23.986Z,0.00
2023-05-08T00:45:23.986Z,0.00
2023-05-08T00:46:23.988Z,0.00
2023-05-08T00:47:23.986Z,0.00
2023-05-08T00:48:23.944Z,0.00
2023-05-08T00:49:23.989Z,0.00
2023-05-08T00:50:23.917Z,0.00
2023-05-08T00:51:23.912Z,0.00
2023-05-08T00:52:23.901Z,0.00
2023-05-08T00:53:23.889Z,0.00
2023-05-08T00:54:23.887Z,0.00
2023-05-08T00:55:23.872Z,0.00
2023-05-08T00:56:23.867Z,0.00
2023-05-08T00:57:23.851Z,0.00
2023-05-08T00:58:23.841Z,0.00
2023-05-08T00:59:23.831Z,0.00
2023-05-08T01:00:23.818Z,0.00
2023-05-08T01:01:23.881Z,0.00
2023-05-08T01:02:23.899Z,0.00
2023-05-08T01:03:23.846Z,0.00
2023-05-08T01:04:23.781Z,0.00
2023-05-08T01:05:23.773Z,0.00
2023-05-08T01:06:23.764Z,0.00
2023-05-08T01:07:23.757Z,0.00
2023-05-08T01:08:23.748Z,0.00
2023-05-08T01:09:23.731Z,0.00
2023-05-08T01:10:23.728Z,0.00
2023-05-08T01:11:23.725Z,0.00
2023-05-08T01:12:23.757Z,0.00
2023-05-08T01:13:23.746Z,0.00
2023-05-08T01:14:23.686Z,0.00
2023-05-08T01:15:23.675Z,0.00
2023-05-08T01:16:23.756Z,0.00
2023-05-08T01:17:23.730Z,0.00
2023-05-08T01:18:23.649Z,0.00
2023-05-08T01:19:23.637Z,0.00
2023-05-08T01:20:23.630Z,0.00
2023-05-08T01:21:23.620Z,0.00
2023-05-08T01:22:23.611Z,0.00
2023-05-08T01:23:23.595Z,0.00
2023-05-08T01:24:23.583Z,0.00
2023-05-08T01:25:23.577Z,0.00
2023-05-08T01:26:23.566Z,0.00
2023-05-08T01:27:23.556Z,0.00
2023-05-08T01:28:23.713Z,0.00
2023-05-08T01:29:23.539Z,0.00
2023-05-08T01:30:23.526Z,0.00
2023-05-08T01:31:23.518Z,0.00
2023-05-08T01:32:23.551Z,0.00
2023-05-08T01:33:23.594Z,0.00
2023-05-08T01:34:23.492Z,0.00
2023-05-08T01:35:23.480Z,0.00
2023-05-08T01:36:23.476Z,0.00
2023-05-08T01:37:23.453Z,0.00
2023-05-08T01:38:23.448Z,0.00
2023-05-08T01:39:23.437Z,0.00
2023-05-08T01:40:23.431Z,0.00
2023-05-08T01:41:23.420Z,0.00
2023-05-08T01:42:23.421Z,0.00
2023-05-08T01:43:23.400Z,0.00
2023-05-08T01:44:23.385Z,0.00
2023-05-08T01:45:23.376Z,0.00
2023-05-08T01:46:23.403Z,0.00
2023-05-08T01:47:23.358Z,0.00
2023-05-08T01:48:23.358Z,0.00
2023-05-08T01:49:23.336Z,0.00
2023-05-08T01:50:23.322Z,0.00
2023-05-08T01:51:23.322Z,0.00
2023-05-08T01:52:23.308Z,0.00
2023-05-08T01:53:23.304Z,0.00
2023-05-08T01:54:23.289Z,0.00
2023-05-08T01:55:23.282Z,0.00
2023-05-08T01:56:23.271Z,0.00
2023-05-08T01:57:23.258Z,0.00
2023-05-08T01:58:23.254Z,0.00
2023-05-08T01:59:23.242Z,0.00
2023-05-08T02:00:23.230Z,0.00
2023-05-08T02:01:23.342Z,0.00
2023-05-08T02:02:23.316Z,0.00
2023-05-08T02:03:23.307Z,0.00
2023-05-08T02:04:23.262Z,0.00
2023-05-08T02:05:23.179Z,0.00
2023-05-08T02:06:23.170Z,0.00
2023-05-08T02:07:23.156Z,0.00
2023-05-08T02:08:23.186Z,0.00
2023-05-08T02:09:23.138Z,0.00
2023-05-08T02:10:23.127Z,0.00
2023-05-08T02:11:23.116Z,0.00
2023-05-08T02:12:23.112Z,0.00
2023-05-08T02:13:23.143Z,0.00
2023-05-08T02:14:23.088Z,0.00
2023-05-08T02:15:23.086Z,0.00
2023-05-08T02:16:23.120Z,0.00
2023-05-08T02:17:23.114Z,0.00
2023-05-08T02:18:23.046Z,0.00
2023-05-08T02:19:23.034Z,0.00
2023-05-08T02:20:23.028Z,0.00
2023-05-08T02:21:23.014Z,0.00
2023-05-08T02:22:23.015Z,0.00
2023-05-08T02:23:22.994Z,0.00
2023-05-08T02:24:23.042Z,0.00
2023-05-08T02:25:22.995Z,0.00
2023-05-08T02:26:22.962Z,0.00
2023-05-08T02:27:22.964Z,0.00
2023-05-08T02:28:22.950Z,0.00
2023-05-08T02:29:22.932Z,0.00
2023-05-08T02:30:22.926Z,0.00
2023-05-08T02:31:22.933Z,0.00
2023-05-08T02:32:23.062Z,0.00
2023-05-08T02:33:22.892Z,0.00
2023-05-08T02:34:22.881Z,0.00
2023-05-08T02:35:22.873Z,0.00
2023-05-08T02:36:22.872Z,0.00
2023-05-08T02:37:22.850Z,0.00
2023-05-08T02:38:22.842Z,0.00
2023-05-08T02:39:22.832Z,0.00
2023-05-08T02:40:22.816Z,0.00
2023-05-08T02:41:22.811Z,0.00
2023-05-08T02:42:22.794Z,0.00
2023-05-08T02:43:22.796Z,0.00
2023-05-08T02:44:22.778Z,0.00
2023-05-08T02:45:22.764Z,0.00
2023-05-08T02:46:22.806Z,4.00
2023-05-08T02:47:22.880Z,4.00
2023-05-08T02:48:22.743Z,4.00
2023-05-08T02:49:22.731Z,0.00
2023-05-08T02:50:22.711Z,4.00
2023-05-08T02:51:22.706Z,4.00
2023-05-08T02:52:22.689Z,0.00
2023-05-08T02:53:22.692Z,4.00
2023-05-08T02:54:22.670Z,8.00
2023-05-08T02:55:22.653Z,4.00
2023-05-08T02:56:22.655Z,4.00
2023-05-08T02:57:22.669Z,8.00
2023-05-08T02:58:22.674Z,8.00
2023-05-08T02:59:22.614Z,12.00
2023-05-08T03:00:22.678Z,12.00
2023-05-08T03:01:22.648Z,12.00
2023-05-08T03:02:22.693Z,12.00
2023-05-08T03:03:22.606Z,16.00
2023-05-08T03:04:22.556Z,20.00
2023-05-08T03:05:22.551Z,20.00
2023-05-08T03:06:22.538Z,24.00
2023-05-08T03:07:22.530Z,28.00
2023-05-08T03:08:22.521Z,32.00
2023-05-08T03:09:22.506Z,36.00
2023-05-08T03:10:22.499Z,44.00
2023-05-08T03:11:22.500Z,48.00
2023-05-08T03:12:22.473Z,52.00
2023-05-08T03:13:22.489Z,60.00
2023-05-08T03:14:22.448Z,64.00
2023-05-08T03:15:22.449Z,72.00
2023-05-08T03:16:22.501Z,80.00
2023-05-08T03:17:22.442Z,88.00
2023-05-08T03:18:22.407Z,92.00
2023-05-08T03:19:23.222Z,104.00
2023-05-08T03:20:22.391Z,112.00
2023-05-08T03:21:22.386Z,120.00
2023-05-08T03:22:22.365Z,132.00
2023-05-08T03:23:22.370Z,140.00
2023-05-08T03:24:22.342Z,152.00
2023-05-08T03:25:22.329Z,168.00
2023-05-08T03:26:22.347Z,176.00
2023-05-08T03:27:22.314Z,192.00
2023-05-08T03:28:22.300Z,204.00
2023-05-08T03:29:22.299Z,220.00
2023-05-08T03:30:22.278Z,236.00
2023-05-08T03:31:22.296Z,256.00
2023-05-08T03:32:22.270Z,272.00
2023-05-08T03:33:22.247Z,288.00
2023-05-08T03:34:22.233Z,308.00
2023-05-08T03:35:22.222Z,328.00
2023-05-08T03:36:22.211Z,348.00
2023-05-08T03:37:22.203Z,372.00
2023-05-08T03:38:22.195Z,392.00
2023-05-08T03:39:22.344Z,412.00
2023-05-08T03:40:22.173Z,440.00
2023-05-08T03:41:22.156Z,464.00
2023-05-08T03:42:22.145Z,484.00
2023-05-08T03:43:22.139Z,504.00
2023-05-08T03:44:22.123Z,528.00
2023-05-08T03:45:22.119Z,556.00
2023-05-08T03:46:22.119Z,584.00
2023-05-08T03:47:22.147Z,616.00
2023-05-08T03:48:22.092Z,648.00
2023-05-08T03:49:22.085Z,676.00
2023-05-08T03:50:22.060Z,700.00
2023-05-08T03:51:22.050Z,732.00
2023-05-08T03:52:22.034Z,764.00
2023-05-08T03:53:22.028Z,800.00
2023-05-08T03:54:22.017Z,828.00
2023-05-08T03:55:22.007Z,856.00
2023-05-08T03:56:23.070Z,884.00
2023-05-08T03:57:21.987Z,920.00
2023-05-08T03:58:21.986Z,960.00
2023-05-08T03:59:21.966Z,1032.00
2023-05-08T04:00:21.957Z,1140.00
2023-05-08T04:01:21.945Z,1252.00
2023-05-08T04:02:22.074Z,1324.00
2023-05-08T04:03:21.952Z,1384.00
2023-05-08T04:04:21.943Z,1432.00
2023-05-08T04:05:21.906Z,1484.00
2023-05-08T04:06:21.898Z,1532.00
2023-05-08T04:07:21.883Z,1564.00
2023-05-08T04:08:21.914Z,1552.00
2023-05-08T04:09:21.859Z,1408.00
2023-05-08T04:10:21.851Z,1640.00
2023-05-08T04:11:21.842Z,1624.00
2023-05-08T04:12:21.845Z,1896.00
2023-05-08T04:13:21.855Z,1960.00
2023-05-08T04:14:21.808Z,1388.00
2023-05-08T04:15:21.802Z,1676.00
2023-05-08T04:16:21.842Z,1660.00
2023-05-08T04:17:21.787Z,1484.00
2023-05-08T04:18:21.764Z,1676.00
2023-05-08T04:19:21.754Z,2024.00
2023-05-08T04:20:21.750Z,1660.00
2023-05-08T04:21:21.735Z,2524.00
2023-05-08T04:22:21.720Z,2712.00
2023-05-08T04:23:21.713Z,2880.00
2023-05-08T04:24:21.704Z,3036.00
2023-05-08T04:25:21.705Z,3208.00
2023-05-08T04:26:21.675Z,3408.00
2023-05-08T04:27:21.667Z,3588.00
2023-05-08T04:28:21.662Z,3772.00
2023-05-08T04:29:21.651Z,3932.00
2023-05-08T04:30:21.638Z,4040.00
2023-05-08T04:31:21.687Z,4128.00
2023-05-08T04:32:21.616Z,4172.00
2023-05-08T04:33:21.619Z,4244.00
2023-05-08T04:34:21.595Z,4316.00
2023-05-08T04:35:21.581Z,4368.00
2023-05-08T04:36:21.576Z,4428.00
2023-05-08T04:37:21.560Z,4484.00
2023-05-08T04:38:21.554Z,4532.00
2023-05-08T04:39:21.544Z,4572.00
2023-05-08T04:40:21.533Z,4628.00
2023-05-08T04:41:21.532Z,4664.00
2023-05-08T04:42:21.513Z,4704.00
2023-05-08T04:43:21.506Z,4744.00
2023-05-08T04:44:21.491Z,4792.00
2023-05-08T04:45:21.542Z,4848.00
2023-05-08T04:46:21.516Z,4896.00
2023-05-08T04:47:21.506Z,4940.00
2023-05-08T04:48:21.453Z,5000.00
2023-05-08T04:49:21.456Z,5040.00
2023-05-08T04:50:21.474Z,5068.00
2023-05-08T04:51:21.436Z,5076.00
2023-05-08T04:52:21.411Z,5104.00
2023-05-08T04:53:21.402Z,5160.00
2023-05-08T04:54:21.393Z,5212.00
2023-05-08T04:55:21.385Z,5232.00
2023-05-08T04:56:21.371Z,5232.00
2023-05-08T04:57:21.369Z,5272.00
2023-05-08T04:58:21.356Z,5312.00
2023-05-08T04:59:21.342Z,5340.00
2023-05-08T05:00:21.343Z,5392.00
2023-05-08T05:01:21.340Z,5440.00
2023-05-08T05:02:21.343Z,5492.00
2023-05-08T05:03:21.334Z,5544.00
2023-05-08T05:04:21.314Z,5620.00
2023-05-08T05:05:21.299Z,5660.00
2023-05-08T05:06:21.274Z,5720.00
2023-05-08T05:07:21.275Z,5752.00
2023-05-08T05:08:21.254Z,5788.00
2023-05-08T05:09:21.248Z,5800.00
2023-05-08T05:10:21.244Z,5812.00
2023-05-08T05:11:21.228Z,5816.00
2023-05-08T05:12:21.227Z,5824.00
2023-05-08T05:13:21.239Z,5828.00
2023-05-08T05:14:21.291Z,5856.00
2023-05-08T05:15:21.194Z,5904.00
2023-05-08T05:16:21.244Z,5948.00
2023-05-08T05:17:21.181Z,6032.00
2023-05-08T05:18:21.179Z,6120.00
2023-05-08T05:19:21.161Z,6236.00
2023-05-08T05:20:21.165Z,6312.00
2023-05-08T05:21:21.173Z,6404.00
2023-05-08T05:22:21.135Z,6436.00
2023-05-08T05:23:21.132Z,6460.00
2023-05-08T05:24:21.138Z,6464.00
2023-05-08T05:25:21.109Z,6428.00
2023-05-08T05:26:21.102Z,6432.00
2023-05-08T05:27:21.483Z,6444.00
2023-05-08T05:28:21.088Z,6496.00
2023-05-08T05:29:21.095Z,6540.00
2023-05-08T05:30:21.071Z,6588.00
2023-05-08T05:31:21.121Z,6676.00
2023-05-08T05:32:21.067Z,6768.00
2023-05-08T05:33:21.052Z,6904.00
2023-05-08T05:34:21.045Z,7000.00
2023-05-08T05:35:21.031Z,7152.00
2023-05-08T05:36:21.021Z,7240.00
2023-05-08T05:37:21.028Z,7344.00
2023-05-08T05:38:21.007Z,7464.00
2023-05-08T05:39:21.017Z,7472.00
2023-05-08T05:40:20.995Z,7488.00
2023-05-08T05:41:20.990Z,7480.00
2023-05-08T05:42:20.976Z,7464.00
2023-05-08T05:43:20.972Z,7484.00
2023-05-08T05:44:20.994Z,7576.00
2023-05-08T05:45:20.960Z,7748.00
2023-05-08T05:46:20.969Z,7860.00
2023-05-08T05:47:21.012Z,8120.00
2023-05-08T05:48:20.934Z,8636.00
2023-05-08T05:49:20.925Z,9464.00
2023-05-08T05:50:20.928Z,12192.00
2023-05-08T05:51:20.914Z,18688.00
2023-05-08T05:52:20.905Z,24544.00
2023-05-08T05:53:20.900Z,24576.00
2023-05-08T05:54:20.891Z,25056.00
2023-05-08T05:55:20.890Z,26080.00
2023-05-08T05:56:20.876Z,26848.00
2023-05-08T05:57:20.871Z,27712.00
2023-05-08T05:58:20.867Z,26592.00
2023-05-08T05:59:20.859Z,27808.00
2023-05-08T06:00:20.892Z,30048.00
2023-05-08T06:01:20.848Z,29824.00
2023-05-08T06:02:20.974Z,29568.00
2023-05-08T06:03:20.931Z,29952.00
2023-05-08T06:04:20.843Z,30496.00
2023-05-08T06:05:20.824Z,33120.00
2023-05-08T06:06:20.811Z,33024.00
2023-05-08T06:07:20.809Z,32704.00
2023-05-08T06:08:20.799Z,37088.00
2023-05-08T06:09:20.795Z,36576.00
2023-05-08T06:10:20.809Z,37280.00
2023-05-08T06:11:20.781Z,36448.00
2023-05-08T06:12:20.789Z,34816.00
2023-05-08T06:13:20.798Z,31072.00
2023-05-08T06:14:20.766Z,29472.00
2023-05-08T06:15:20.756Z,28800.00
2023-05-08T06:16:20.819Z,28704.00
2023-05-08T06:17:20.777Z,28352.00
2023-05-08T06:18:20.750Z,27680.00
2023-05-08T06:19:20.743Z,27360.00
2023-05-08T06:20:20.733Z,26688.00
2023-05-08T06:21:20.732Z,28608.00
2023-05-08T06:22:20.718Z,29696.00
2023-05-08T06:23:20.722Z,27264.00
2023-05-08T06:24:20.713Z,27808.00
2023-05-08T06:25:20.710Z,30752.00
2023-05-08T06:26:23.254Z,28896.00
2023-05-08T06:27:20.690Z,27328.00
2023-05-08T06:28:20.684Z,32192.00
2023-05-08T06:29:20.686Z,37344.00
2023-05-08T06:30:20.678Z,35872.00
2023-05-08T06:31:20.694Z,33408.00
2023-05-08T06:32:20.701Z,37152.00
2023-05-08T06:33:20.671Z,38272.00
2023-05-08T06:34:20.669Z,37280.00
2023-05-08T06:35:20.662Z,44128.00
2023-05-08T06:36:20.661Z,47008.00
2023-05-08T06:37:20.672Z,41696.00
2023-05-08T06:38:20.646Z,37472.00
2023-05-08T06:39:20.645Z,33376.00
2023-05-08T06:40:20.639Z,31680.00
2023-05-08T06:41:20.629Z,32704.00
2023-05-08T06:42:20.630Z,34752.00
2023-05-08T06:43:20.627Z,35200.00
2023-05-08T06:44:20.633Z,33088.00
2023-05-08T06:45:20.630Z,31776.00
2023-05-08T06:46:20.706Z,32320.00
2023-05-08T06:47:20.635Z,33408.00
2023-05-08T06:48:20.612Z,34816.00
2023-05-08T06:49:20.606Z,35136.00
2023-05-08T06:50:20.613Z,36448.00
2023-05-08T06:51:20.600Z,38144.00
2023-05-08T06:52:20.598Z,38656.00
2023-05-08T06:53:20.593Z,37728.00
2023-05-08T06:54:20.589Z,38880.00
2023-05-08T06:55:20.588Z,40832.00
2023-05-08T06:56:20.587Z,38464.00
2023-05-08T06:57:20.581Z,38624.00
2023-05-08T06:58:20.580Z,43072.00
2023-05-08T06:59:20.574Z,43520.00
2023-05-08T07:00:20.571Z,41248.00
2023-05-08T07:01:20.605Z,40608.00
2023-05-08T07:02:20.599Z,39488.00
2023-05-08T07:03:20.567Z,39712.00
2023-05-08T07:04:20.643Z,41536.00
2023-05-08T07:05:20.682Z,42464.00
2023-05-08T07:06:20.553Z,46848.00
2023-05-08T07:07:20.553Z,48352.00
2023-05-08T07:08:20.548Z,44864.00
2023-05-08T07:09:20.551Z,50016.00
2023-05-08T07:10:20.546Z,55104.00
2023-05-08T07:11:20.548Z,48896.00
2023-05-08T07:12:20.541Z,46464.00
2023-05-08T07:13:20.598Z,47552.00
2023-05-08T07:14:20.533Z,42304.00
2023-05-08T07:16:20.567Z,44576.00
2023-05-08T07:17:20.532Z,45856.00
2023-05-08T07:18:20.528Z,45856.00
2023-05-08T07:19:22.360Z,46048.00
2023-05-08T07:20:20.537Z,47264.00
2023-05-08T07:21:20.518Z,48096.00
2023-05-08T07:22:20.541Z,47232.00
2023-05-08T07:23:20.517Z,44800.00
2023-05-08T07:24:20.513Z,44480.00
2023-05-08T07:25:20.504Z,47040.00
2023-05-08T07:26:20.505Z,51680.00
2023-05-08T07:27:20.522Z,54976.00
2023-05-08T07:28:20.501Z,52928.00
2023-05-08T07:29:20.500Z,50592.00
2023-05-08T07:30:20.504Z,51520.00
2023-05-08T07:31:20.587Z,49888.00
2023-05-08T07:32:20.499Z,49376.00
2023-05-08T07:33:20.502Z,52960.00
2023-05-08T07:34:20.493Z,54272.00
2023-05-08T07:35:20.493Z,51936.00
2023-05-08T07:36:20.491Z,48736.00
2023-05-08T07:37:20.493Z,46720.00
2023-05-08T07:38:20.482Z,47456.00
2023-05-08T07:39:20.509Z,51584.00
2023-05-08T07:40:20.482Z,53536.00
2023-05-08T07:41:20.517Z,53664.00
2023-05-08T07:42:20.477Z,56704.00
2023-05-08T07:43:20.489Z,60160.00
2023-05-08T07:44:20.488Z,54304.00
2023-05-08T07:45:20.484Z,49504.00
2023-05-08T07:46:20.518Z,54208.00
2023-05-08T07:47:20.474Z,60768.00
2023-05-08T07:48:20.470Z,59264.00
2023-05-08T07:49:20.476Z,54144.00
2023-05-08T07:50:20.514Z,56448.00
2023-05-08T07:51:20.465Z,63424.00
2023-05-08T07:52:20.562Z,62368.00
2023-05-08T07:53:20.464Z,54528.00
2023-05-08T07:54:20.468Z,54112.00
2023-05-08T07:55:20.463Z,65760.00
2023-05-08T07:56:20.468Z,72736.00
2023-05-08T07:57:20.472Z,67520.00
2023-05-08T07:58:21.587Z,65888.00
2023-05-08T07:59:20.466Z,70464.00
2023-05-08T08:00:20.463Z,74080.00
2023-05-08T08:01:20.468Z,68544.00
2023-05-08T08:02:20.500Z,67584.00
2023-05-08T08:03:20.499Z,75744.00
2023-05-08T08:04:20.482Z,77760.00
2023-05-08T08:05:20.467Z,68320.00
2023-05-08T08:06:20.463Z,61312.00
2023-05-08T08:07:20.463Z,61728.00
2023-05-08T08:08:20.563Z,65280.00
2023-05-08T08:09:20.470Z,67776.00
2023-05-08T08:10:20.468Z,58880.00
2023-05-08T08:11:20.481Z,21056.00
2023-05-08T08:12:20.464Z,4952.00
2023-05-08T08:13:20.529Z,4608.00
2023-05-08T08:14:20.464Z,4432.00
2023-05-08T08:15:20.471Z,4244.00
2023-05-08T08:16:20.493Z,4088.00
2023-05-08T08:17:20.543Z,3980.00
2023-05-08T08:18:20.471Z,3964.00
2023-05-08T08:19:20.480Z,3936.00
2023-05-08T08:20:20.469Z,3880.00
2023-05-08T08:21:20.464Z,3848.00
2023-05-08T08:22:20.472Z,3836.00
2023-05-08T08:23:20.536Z,3832.00
2023-05-08T08:24:20.462Z,3824.00
2023-05-08T08:25:20.460Z,3800.00
2023-05-08T08:26:20.459Z,3812.00
2023-05-08T08:27:20.457Z,3760.00
2023-05-08T08:28:20.454Z,3752.00
2023-05-08T08:29:20.455Z,3740.00
2023-05-08T08:30:20.455Z,3744.00
2023-05-08T08:31:20.540Z,3744.00
2023-05-08T08:32:20.447Z,3720.00
2023-05-08T08:33:20.442Z,3716.00
2023-05-08T08:34:20.442Z,3700.00
2023-05-08T08:35:20.433Z,3692.00
2023-05-08T08:36:20.449Z,3684.00
2023-05-08T08:37:20.429Z,3656.00
2023-05-08T08:38:20.429Z,3672.00
2023-05-08T08:39:20.418Z,3700.00
2023-05-08T08:40:20.504Z,5712.00
2023-05-08T08:41:20.411Z,26784.00
2023-05-08T08:42:20.407Z,38112.00
2023-05-08T08:43:20.403Z,42144.00
2023-05-08T08:44:20.412Z,3588.00
2023-05-08T08:45:20.391Z,3936.00
2023-05-08T08:46:20.442Z,4680.00
2023-05-08T08:47:20.457Z,3968.00
2023-05-08T08:48:20.381Z,3700.00
2023-05-08T08:49:20.377Z,27392.00
2023-05-08T08:50:20.380Z,41696.00
2023-05-08T08:51:20.368Z,67168.00
2023-05-08T08:52:20.365Z,56384.00
2023-05-08T08:53:20.359Z,68512.00
2023-05-08T08:54:20.372Z,9300.00
2023-05-08T08:55:20.364Z,5212.00
2023-05-08T08:56:20.432Z,3724.00
2023-05-08T08:57:20.361Z,3508.00
2023-05-08T08:58:20.342Z,3468.00
2023-05-08T08:59:20.346Z,3424.00
2023-05-08T09:00:20.392Z,3396.00
2023-05-08T09:01:20.367Z,3352.00
2023-05-08T09:02:20.399Z,3292.00
2023-05-08T09:03:20.407Z,3288.00
2023-05-08T09:04:20.476Z,3252.00
2023-05-08T09:05:20.319Z,3216.00
2023-05-08T09:06:20.318Z,3168.00
2023-05-08T09:07:20.312Z,3136.00
2023-05-08T09:08:20.305Z,3116.00
2023-05-08T09:09:20.303Z,3112.00
2023-05-08T09:10:20.303Z,3136.00
2023-05-08T09:11:20.318Z,3148.00
2023-05-08T09:12:20.370Z,3248.00
2023-05-08T09:13:20.304Z,3376.00
2023-05-08T09:14:20.286Z,3512.00
2023-05-08T09:15:20.283Z,3660.00
2023-05-08T09:16:20.306Z,3716.00
2023-05-08T09:17:20.266Z,3736.00
2023-05-08T09:18:20.260Z,3716.00
2023-05-08T09:19:23.356Z,3592.00
2023-05-08T09:20:20.260Z,3464.00
2023-05-08T09:21:20.246Z,3360.00
2023-05-08T09:22:20.241Z,3304.00
2023-05-08T09:23:20.242Z,3292.00
2023-05-08T09:24:20.232Z,3288.00
2023-05-08T09:25:20.227Z,3288.00
2023-05-08T09:26:20.223Z,3288.00
2023-05-08T09:27:20.217Z,3292.00
2023-05-08T09:28:20.308Z,3288.00
2023-05-08T09:29:20.204Z,3268.00
2023-05-08T09:30:20.280Z,3268.00
2023-05-08T09:31:20.215Z,3268.00
2023-05-08T09:32:20.190Z,3264.00
2023-05-08T09:33:20.187Z,3236.00
2023-05-08T09:34:20.182Z,3256.00
2023-05-08T09:35:20.175Z,3284.00
2023-05-08T09:36:20.169Z,3312.00
2023-05-08T09:37:20.164Z,3280.00
2023-05-08T09:38:20.168Z,3220.00
2023-05-08T09:39:20.182Z,3136.00
2023-05-08T09:40:20.194Z,3044.00
2023-05-08T09:41:20.146Z,2948.00
2023-05-08T09:42:20.135Z,2888.00
2023-05-08T09:43:20.129Z,2876.00
2023-05-08T09:44:20.209Z,2868.00
2023-05-08T09:45:20.125Z,2872.00
2023-05-08T09:46:20.148Z,2852.00
2023-05-08T09:47:20.118Z,2864.00
2023-05-08T09:48:20.116Z,2860.00
2023-05-08T09:49:20.196Z,2856.00
2023-05-08T09:50:20.174Z,2840.00
2023-05-08T09:51:20.091Z,2828.00
2023-05-08T09:52:20.082Z,2836.00
2023-05-08T09:53:20.078Z,2832.00
2023-05-08T09:54:20.084Z,2812.00
2023-05-08T09:55:20.082Z,2852.00
2023-05-08T09:56:20.079Z,2884.00
2023-05-08T09:57:20.060Z,2980.00
2023-05-08T09:58:20.065Z,3056.00
2023-05-08T09:59:20.098Z,3188.00
2023-05-08T10:00:20.210Z,3264.00
2023-05-08T10:01:20.083Z,3356.00
2023-05-08T10:02:20.081Z,3428.00
2023-05-08T10:03:20.059Z,3436.00
2023-05-08T10:04:20.025Z,3420.00
2023-05-08T10:05:20.062Z,3400.00
2023-05-08T10:06:20.018Z,3384.00
2023-05-08T10:07:20.011Z,3368.00
2023-05-08T10:08:20.052Z,3360.00
2023-05-08T10:09:20.068Z,3408.00
2023-05-08T10:10:19.991Z,3404.00
2023-05-08T10:11:20.001Z,3380.00
2023-05-08T10:12:19.976Z,3348.00
2023-05-08T10:13:20.120Z,3340.00
2023-05-08T10:14:19.968Z,3340.00
2023-05-08T10:15:19.969Z,3332.00
2023-05-08T10:16:20.077Z,3348.00
2023-05-08T10:17:20.093Z,3356.00
2023-05-08T10:18:19.954Z,3356.00
2023-05-08T10:19:19.983Z,3372.00
2023-05-08T10:20:21.313Z,3380.00
2023-05-08T10:21:19.936Z,3424.00
2023-05-08T10:22:19.945Z,3460.00
2023-05-08T10:23:19.933Z,3488.00
2023-05-08T10:24:19.917Z,3536.00
2023-05-08T10:25:19.914Z,3560.00
2023-05-08T10:26:19.908Z,3596.00
2023-05-08T10:27:19.907Z,3624.00
2023-05-08T10:28:19.903Z,3628.00
2023-05-08T10:29:19.896Z,3620.00
2023-05-08T10:30:19.890Z,3624.00
2023-05-08T10:31:19.927Z,3632.00
2023-05-08T10:32:19.963Z,3612.00
2023-05-08T10:33:19.874Z,3576.00
2023-05-08T10:34:19.869Z,3552.00
2023-05-08T10:35:19.866Z,3540.00
2023-05-08T10:36:19.865Z,3492.00
2023-05-08T10:37:19.855Z,3492.00
2023-05-08T10:38:19.856Z,3480.00
2023-05-08T10:39:19.842Z,3464.00
2023-05-08T10:40:19.841Z,3468.00
2023-05-08T10:41:19.833Z,3448.00
2023-05-08T10:42:19.831Z,3472.00
2023-05-08T10:43:19.824Z,3504.00
2023-05-08T10:44:19.820Z,3644.00
2023-05-08T10:45:19.810Z,4556.00
2023-05-08T10:46:19.877Z,7520.00
2023-05-08T10:47:19.801Z,8440.00
2023-05-08T10:48:19.802Z,7900.00
2023-05-08T10:49:19.791Z,5000.00
2023-05-08T10:50:19.786Z,2780.00
2023-05-08T10:51:19.780Z,2692.00
2023-05-08T10:52:19.778Z,2652.00
2023-05-08T10:53:19.771Z,2624.00
2023-05-08T10:54:19.774Z,2608.00
2023-05-08T10:55:19.764Z,2624.00
2023-05-08T10:56:19.754Z,2616.00
2023-05-08T10:57:19.759Z,2616.00
2023-05-08T10:58:19.740Z,2612.00
2023-05-08T10:59:19.771Z,2624.00
2023-05-08T11:00:19.738Z,2624.00
2023-05-08T11:01:19.799Z,2628.00
2023-05-08T11:02:19.760Z,2628.00
2023-05-08T11:03:30.402Z,2628.00
2023-05-08T11:04:19.780Z,2624.00
2023-05-08T11:05:19.713Z,2640.00
2023-05-08T11:06:19.699Z,2664.00
2023-05-08T11:07:19.697Z,2732.00
2023-05-08T11:08:19.690Z,4008.00
2023-05-08T11:09:19.692Z,5908.00
2023-05-08T11:10:19.682Z,6636.00
2023-05-08T11:11:19.674Z,8924.00
2023-05-08T11:12:19.674Z,8976.00
2023-05-08T11:13:19.714Z,5904.00
2023-05-08T11:14:19.666Z,3884.00
2023-05-08T11:15:19.653Z,3500.00
2023-05-08T11:16:19.672Z,3276.00
2023-05-08T11:17:19.641Z,3132.00
2023-05-08T11:18:19.657Z,3028.00
2023-05-08T11:19:19.632Z,2924.00
2023-05-08T11:20:19.637Z,2816.00
2023-05-08T11:21:19.627Z,2768.00
2023-05-08T11:22:19.640Z,2716.00
2023-05-08T11:23:19.608Z,2704.00
2023-05-08T11:24:19.605Z,2732.00
2023-05-08T11:25:19.612Z,2772.00
2023-05-08T11:26:19.598Z,2876.00
2023-05-08T11:27:19.613Z,2964.00
2023-05-08T11:28:19.588Z,3040.00
2023-05-08T11:29:19.584Z,3072.00
2023-05-08T11:30:19.577Z,3120.00
2023-05-08T11:31:19.614Z,3132.00
2023-05-08T11:32:19.606Z,3132.00
2023-05-08T11:33:19.569Z,3160.00
2023-05-08T11:34:19.557Z,3160.00
2023-05-08T11:35:20.202Z,3152.00
2023-05-08T11:36:19.576Z,3160.00
2023-05-08T11:37:19.545Z,3148.00
2023-05-08T11:38:19.541Z,3112.00
2023-05-08T11:39:19.724Z,3068.00
2023-05-08T11:40:19.528Z,2980.00
2023-05-08T11:41:19.524Z,2872.00
2023-05-08T11:42:19.522Z,2788.00
2023-05-08T11:43:19.529Z,2720.00
2023-05-08T11:44:19.535Z,2616.00
2023-05-08T11:45:19.505Z,2556.00
2023-05-08T11:46:19.539Z,2544.00
2023-05-08T11:47:19.583Z,2536.00
2023-05-08T11:48:19.502Z,2532.00
2023-05-08T11:49:23.767Z,2524.00
2023-05-08T11:50:19.482Z,2516.00
2023-05-08T11:51:19.525Z,2512.00
2023-05-08T11:52:19.474Z,2504.00
2023-05-08T11:53:19.482Z,2488.00
2023-05-08T11:54:19.468Z,2508.00
2023-05-08T11:55:19.454Z,2504.00
2023-05-08T11:56:19.447Z,2496.00
2023-05-08T11:57:19.445Z,2500.00
2023-05-08T11:58:19.491Z,2480.00
2023-05-08T11:59:19.438Z,2472.00
2023-05-08T12:00:19.496Z,2472.00
2023-05-08T12:01:19.435Z,2472.00
2023-05-08T12:02:19.451Z,2460.00
2023-05-08T12:03:19.560Z,2472.00
2023-05-08T12:04:19.538Z,2460.00
2023-05-08T12:05:19.408Z,2456.00
2023-05-08T12:06:19.408Z,2448.00
2023-05-08T12:07:19.401Z,2452.00
2023-05-08T12:08:19.394Z,2444.00
2023-05-08T12:09:19.393Z,2432.00
2023-05-08T12:10:19.578Z,2440.00
2023-05-08T12:11:19.382Z,2440.00
2023-05-08T12:12:19.389Z,2440.00
2023-05-08T12:13:19.469Z,2444.00
2023-05-08T12:14:19.375Z,2436.00
2023-05-08T12:15:19.362Z,2440.00
2023-05-08T12:16:19.360Z,2440.00
2023-05-08T12:17:19.429Z,2444.00
2023-05-08T12:18:19.384Z,2448.00
2023-05-08T12:19:19.350Z,2452.00
2023-05-08T12:20:19.678Z,2456.00